TimeWET,TemperatureF,Dew PointF,Humidity,Sea Level PressureIn,VisibilityMPH,Wind Direction,Wind SpeedMPH,Gust SpeedMPH,PrecipitationIn,Events,Conditions,WindDirDegrees,DateUTC
12:00 AM,61,43,41,29.92,6,Calm,Calm,,,,,,2012-10-17 00:00:00
12:00 AM,60.8,42.8,52,29.98,-9999.0,Calm,Calm,-,N/A,,Clear,0,2012-10-17 00:00:00
2:00 AM,60.8,42.8,52,29.95,-9999.0,Calm,Calm,-,N/A,,Clear,0,2012-10-17 02:00:00
3:00 AM,60,43,43,29.90,6,Calm,Calm,,,,,,2012-10-17 03:00:00
3:00 AM,60.8,42.8,52,29.92,-9999.0,Calm,Calm,-,N/A,,Clear,0,2012-10-17 03:00:00
4:00 AM,57.2,42.8,59,29.92,-9999.0,ESE,4.6,-,N/A,,Clear,120,2012-10-17 04:00:00
5:00 AM,55.4,41.0,58,29.92,-9999.0,ESE,4.6,-,N/A,,Clear,120,2012-10-17 05:00:00
6:00 AM,61,42,38,29.88,6,ESE,4.6,,,,,110,2012-10-17 06:00:00
6:00 AM,60.8,42.8,52,29.92,-9999.0,ESE,4.6,-,N/A,,Clear,110,2012-10-17 06:00:00
7:00 AM,60.8,41.0,48,29.92,-9999.0,ESE,5.8,-,N/A,,Clear,120,2012-10-17 07:00:00
8:00 AM,68.0,41.0,37,29.95,-9999.0,ESE,2.3,-,N/A,,Clear,120,2012-10-17 08:00:00
9:00 AM,78,42,17,29.86,6,Calm,Calm,,,,Scattered Clouds,,2012-10-17 09:00:00
9:00 AM,77.0,42.8,29,29.95,-9999.0,Calm,Calm,-,N/A,,Clear,0,2012-10-17 09:00:00
10:00 AM,80.6,41.0,24,29.95,-9999.0,North,-9999.0,-,N/A,,Mostly Cloudy,0,2012-10-17 10:00:00
11:00 AM,82.4,42.8,25,29.95,6.2,NW,4.6,-,N/A,,Scattered Clouds,310,2012-10-17 11:00:00
12:00 PM,82,44,16,29.81,6,NW,5.8,,,,Scattered Clouds,320,2012-10-17 12:00:00
12:00 PM,82.4,44.6,26,29.92,6.2,NW,5.8,-,N/A,,Mostly Cloudy,320,2012-10-17 12:00:00
1:00 PM,84.2,39.2,20,29.89,6.2,NW,6.9,-,N/A,,Mostly Cloudy,310,2012-10-17 13:00:00
2:00 PM,84.2,44.6,25,29.89,6.2,NNW,4.6,-,N/A,,Mostly Cloudy,340,2012-10-17 14:00:00
3:00 PM,85,44,15,29.75,6,NNW,4.6,,,,Scattered Clouds,330,2012-10-17 15:00:00
3:00 PM,86.0,44.6,23,29.86,6.2,NNW,4.6,-,N/A,,Mostly Cloudy,330,2012-10-17 15:00:00
4:00 PM,84.2,44.6,25,29.86,6.2,NW,4.6,-,N/A,,Mostly Cloudy,310,2012-10-17 16:00:00
5:00 PM,80.6,42.8,26,29.86,6.2,WNW,3.5,-,N/A,,Mostly Cloudy,300,2012-10-17 17:00:00
6:00 PM,78,44,19,29.75,6,NNW,2.3,,,,Scattered Clouds,330,2012-10-17 18:00:00
6:00 PM,78.8,42.8,28,29.86,6.2,NNW,2.3,-,N/A,,Mostly Cloudy,330,2012-10-17 18:00:00
7:00 PM,73.4,46.4,38,29.86,6.2,Calm,Calm,-,N/A,,Mostly Cloudy,0,2012-10-17 19:00:00
8:00 PM,71.6,46.4,41,29.86,6.2,West,2.3,-,N/A,,Mostly Cloudy,260,2012-10-17 20:00:00
9:00 PM,68,47,36,29.81,6,West,4.6,,,,Scattered Clouds,260,2012-10-17 21:00:00
9:00 PM,68.0,48.2,49,29.86,-9999.0,West,4.6,-,N/A,,Clear,260,2012-10-17 21:00:00
10:00 PM,66.2,50.0,56,29.86,-9999.0,Calm,Calm,-,N/A,,Clear,0,2012-10-17 22:00:00
11:00 PM,64.4,51.8,64,29.86,-9999.0,Calm,Calm,-,N/A,,Clear,0,2012-10-17 23:00:00